sensor_id;sensor_type;location;lat;lon;timestamp;P1;durP1;ratioP1;P2;durP2;ratioP2
16510;SDS011;8368;48.772;8.754;2023-07-09T00:02:19;2.05;;;1.95;;
16510;SDS011;8368;48.772;8.754;2023-07-09T00:04:49;2.67;;;2.47;;
16510;SDS011;8368;48.772;8.754;2023-07-09T00:07:17;2.45;;;2.35;;
16510;SDS011;8368;48.772;8.754;2023-07-09T00:09:53;2.15;;;2.05;;
16510;SDS011;8368;48.772;8.754;2023-07-09T00:12:20;2.40;;;2.25;;
16510;SDS011;8368;48.772;8.754;2023-07-09T00:14:45;2.55;;;2.35;;
16510;SDS011;8368;48.772;8.754;2023-07-09T00:17:15;2.50;;;2.22;;
16510;SDS011;8368;48.772;8.754;2023-07-09T00:19:48;2.42;;;2.22;;
16510;SDS011;8368;48.772;8.754;2023-07-09T00:22:15;2.40;;;2.28;;
16510;SDS011;8368;48.772;8.754;2023-07-09T00:24:45;2.28;;;2.17;;
16510;SDS011;8368;48.772;8.754;2023-07-09T00:27:12;2.72;;;2.53;;
16510;SDS011;8368;48.772;8.754;2023-07-09T00:29:40;2.50;;;2.40;;
16510;SDS011;8368;48.772;8.754;2023-07-09T00:32:16;2.47;;;2.25;;
16510;SDS011;8368;48.772;8.754;2023-07-09T00:34:45;2.70;;;2.50;;
16510;SDS011;8368;48.772;8.754;2023-07-09T00:37:14;2.30;;;2.20;;
16510;SDS011;8368;48.772;8.754;2023-07-09T00:39:41;2.72;;;2.10;;
16510;SDS011;8368;48.772;8.754;2023-07-09T00:42:14;2.60;;;2.40;;
16510;SDS011;8368;48.772;8.754;2023-07-09T00:44:42;2.30;;;2.10;;
16510;SDS011;8368;48.772;8.754;2023-07-09T00:52:54;2.40;;;2.30;;
16510;SDS011;8368;48.772;8.754;2023-07-09T00:55:28;2.58;;;2.38;;
16510;SDS011;8368;48.772;8.754;2023-07-09T00:57:59;3.08;;;2.80;;
16510;SDS011;8368;48.772;8.754;2023-07-09T01:00:28;2.78;;;2.58;;
16510;SDS011;8368;48.772;8.754;2023-07-09T01:03:00;2.67;;;2.47;;
16510;SDS011;8368;48.772;8.754;2023-07-09T01:05:28;2.67;;;2.47;;
16510;SDS011;8368;48.772;8.754;2023-07-09T01:07:54;3.03;;;2.80;;
16510;SDS011;8368;48.772;8.754;2023-07-09T01:10:19;3.42;;;2.72;;
16510;SDS011;8368;48.772;8.754;2023-07-09T01:12:45;3.20;;;2.70;;
16510;SDS011;8368;48.772;8.754;2023-07-09T01:15:13;3.13;;;2.67;;
16510;SDS011;8368;48.772;8.754;2023-07-09T01:17:40;2.42;;;2.33;;
16510;SDS011;8368;48.772;8.754;2023-07-09T01:20:09;2.85;;;2.40;;
16510;SDS011;8368;48.772;8.754;2023-07-09T01:22:41;2.35;;;2.17;;
16510;SDS011;8368;48.772;8.754;2023-07-09T01:25:07;2.50;;;2.30;;
16510;SDS011;8368;48.772;8.754;2023-07-09T01:27:39;2.35;;;2.20;;
16510;SDS011;8368;48.772;8.754;2023-07-09T01:30:08;2.25;;;2.05;;
16510;SDS011;8368;48.772;8.754;2023-07-09T01:32:36;2.70;;;2.50;;
16510;SDS011;8368;48.772;8.754;2023-07-09T01:35:04;2.65;;;2.55;;
16510;SDS011;8368;48.772;8.754;2023-07-09T01:37:32;2.35;;;2.25;;
16510;SDS011;8368;48.772;8.754;2023-07-09T01:40:03;2.58;;;2.40;;
16510;SDS011;8368;48.772;8.754;2023-07-09T01:42:32;2.80;;;2.58;;
16510;SDS011;8368;48.772;8.754;2023-07-09T01:44:58;2.65;;;2.45;;
16510;SDS011;8368;48.772;8.754;2023-07-09T01:47:24;2.55;;;2.45;;
16510;SDS011;8368;48.772;8.754;2023-07-09T01:49:50;3.75;;;2.63;;
16510;SDS011;8368;48.772;8.754;2023-07-09T01:52:19;2.20;;;2.10;;
16510;SDS011;8368;48.772;8.754;2023-07-09T01:54:44;2.60;;;2.50;;
16510;SDS011;8368;48.772;8.754;2023-07-09T01:59:50;2.90;;;2.60;;
16510;SDS011;8368;48.772;8.754;2023-07-09T02:02:20;2.50;;;2.30;;
16510;SDS011;8368;48.772;8.754;2023-07-09T02:04:50;2.50;;;2.35;;
16510;SDS011;8368;48.772;8.754;2023-07-09T02:07:17;2.72;;;2.53;;
16510;SDS011;8368;48.772;8.754;2023-07-09T02:09:44;3.38;;;2.80;;
16510;SDS011;8368;48.772;8.754;2023-07-09T02:12:10;3.80;;;3.13;;
16510;SDS011;8368;48.772;8.754;2023-07-09T02:14:37;3.22;;;2.95;;
16510;SDS011;8368;48.772;8.754;2023-07-09T02:17:04;4.07;;;2.78;;
16510;SDS011;8368;48.772;8.754;2023-07-09T02:19:30;3.08;;;2.88;;
16510;SDS011;8368;48.772;8.754;2023-07-09T02:21:56;3.03;;;2.83;;
16510;SDS011;8368;48.772;8.754;2023-07-09T02:24:22;2.97;;;2.78;;
16510;SDS011;8368;48.772;8.754;2023-07-09T02:26:53;3.15;;;2.95;;
16510;SDS011;8368;48.772;8.754;2023-07-09T02:29:19;3.20;;;2.92;;
16510;SDS011;8368;48.772;8.754;2023-07-09T02:31:45;3.53;;;3.22;;
16510;SDS011;8368;48.772;8.754;2023-07-09T02:34:13;3.80;;;3.50;;
16510;SDS011;8368;48.772;8.754;2023-07-09T02:36:38;3.17;;;2.97;;
16510;SDS011;8368;48.772;8.754;2023-07-09T02:39:07;4.63;;;3.63;;
16510;SDS011;8368;48.772;8.754;2023-07-09T02:41:37;3.47;;;3.22;;
16510;SDS011;8368;48.772;8.754;2023-07-09T02:44:04;3.75;;;3.45;;
16510;SDS011;8368;48.772;8.754;2023-07-09T02:46:29;3.53;;;3.22;;
16510;SDS011;8368;48.772;8.754;2023-07-09T02:48:55;3.90;;;3.60;;
16510;SDS011;8368;48.772;8.754;2023-07-09T02:51:21;3.80;;;3.50;;
16510;SDS011;8368;48.772;8.754;2023-07-09T02:53:47;4.00;;;3.75;;
16510;SDS011;8368;48.772;8.754;2023-07-09T02:56:13;4.55;;;3.95;;
16510;SDS011;8368;48.772;8.754;2023-07-09T02:58:38;4.45;;;4.05;;
16510;SDS011;8368;48.772;8.754;2023-07-09T03:01:04;5.03;;;3.97;;
16510;SDS011;8368;48.772;8.754;2023-07-09T03:03:30;5.15;;;4.65;;
16510;SDS011;8368;48.772;8.754;2023-07-09T03:05:56;6.30;;;5.43;;
16510;SDS011;8368;48.772;8.754;2023-07-09T03:08:22;5.10;;;4.63;;
16510;SDS011;8368;48.772;8.754;2023-07-09T03:10:48;7.93;;;5.40;;
16510;SDS011;8368;48.772;8.754;2023-07-09T03:13:13;6.03;;;5.45;;
16510;SDS011;8368;48.772;8.754;2023-07-09T03:15:39;6.38;;;5.63;;
16510;SDS011;8368;48.772;8.754;2023-07-09T03:18:04;7.13;;;5.60;;
16510;SDS011;8368;48.772;8.754;2023-07-09T03:20:30;6.63;;;5.97;;
16510;SDS011;8368;48.772;8.754;2023-07-09T03:22:55;8.30;;;6.43;;
16510;SDS011;8368;48.772;8.754;2023-07-09T03:25:21;8.57;;;5.88;;
16510;SDS011;8368;48.772;8.754;2023-07-09T03:27:47;6.90;;;5.22;;
16510;SDS011;8368;48.772;8.754;2023-07-09T03:30:13;5.60;;;5.07;;
16510;SDS011;8368;48.772;8.754;2023-07-09T03:32:39;6.13;;;5.30;;
16510;SDS011;8368;48.772;8.754;2023-07-09T03:35:04;5.00;;;4.45;;
16510;SDS011;8368;48.772;8.754;2023-07-09T03:37:30;6.45;;;5.25;;
16510;SDS011;8368;48.772;8.754;2023-07-09T03:39:56;6.00;;;5.40;;
16510;SDS011;8368;48.772;8.754;2023-07-09T03:42:21;6.60;;;5.13;;
16510;SDS011;8368;48.772;8.754;2023-07-09T03:44:47;7.20;;;5.43;;
16510;SDS011;8368;48.772;8.754;2023-07-09T03:47:12;5.97;;;4.97;;
16510;SDS011;8368;48.772;8.754;2023-07-09T03:49:38;5.65;;;5.10;;
16510;SDS011;8368;48.772;8.754;2023-07-09T03:52:06;4.90;;;4.43;;
16510;SDS011;8368;48.772;8.754;2023-07-09T03:54:32;5.47;;;4.78;;
16510;SDS011;8368;48.772;8.754;2023-07-09T03:56:58;4.65;;;4.28;;
16510;SDS011;8368;48.772;8.754;2023-07-09T03:59:23;4.40;;;4.00;;
16510;SDS011;8368;48.772;8.754;2023-07-09T04:01:49;4.43;;;4.13;;
16510;SDS011;8368;48.772;8.754;2023-07-09T04:04:14;5.18;;;4.00;;
16510;SDS011;8368;48.772;8.754;2023-07-09T04:06:40;4.45;;;4.07;;
16510;SDS011;8368;48.772;8.754;2023-07-09T04:09:06;3.40;;;3.10;;
16510;SDS011;8368;48.772;8.754;2023-07-09T04:11:31;4.20;;;3.80;;
16510;SDS011;8368;48.772;8.754;2023-07-09T04:13:57;5.57;;;4.30;;
16510;SDS011;8368;48.772;8.754;2023-07-09T04:16:23;4.18;;;3.78;;
16510;SDS011;8368;48.772;8.754;2023-07-09T04:18:48;4.22;;;3.83;;
16510;SDS011;8368;48.772;8.754;2023-07-09T04:21:14;3.90;;;3.60;;
16510;SDS011;8368;48.772;8.754;2023-07-09T04:23:39;3.80;;;3.50;;
16510;SDS011;8368;48.772;8.754;2023-07-09T04:26:05;4.72;;;3.58;;
16510;SDS011;8368;48.772;8.754;2023-07-09T04:28:34;3.58;;;3.28;;
16510;SDS011;8368;48.772;8.754;2023-07-09T04:30:59;2.97;;;2.67;;
16510;SDS011;8368;48.772;8.754;2023-07-09T04:33:25;3.20;;;3.00;;
16510;SDS011;8368;48.772;8.754;2023-07-09T04:35:50;3.25;;;2.95;;
16510;SDS011;8368;48.772;8.754;2023-07-09T04:38:16;2.78;;;2.60;;
16510;SDS011;8368;48.772;8.754;2023-07-09T04:40:42;3.25;;;2.95;;
16510;SDS011;8368;48.772;8.754;2023-07-09T04:43:07;3.72;;;3.28;;
16510;SDS011;8368;48.772;8.754;2023-07-09T04:45:33;3.30;;;2.90;;
16510;SDS011;8368;48.772;8.754;2023-07-09T04:47:59;3.67;;;3.22;;
16510;SDS011;8368;48.772;8.754;2023-07-09T04:50:25;3.35;;;3.05;;
16510;SDS011;8368;48.772;8.754;2023-07-09T04:52:50;3.40;;;3.10;;
16510;SDS011;8368;48.772;8.754;2023-07-09T04:55:17;3.65;;;3.00;;
16510;SDS011;8368;48.772;8.754;2023-07-09T04:57:44;3.88;;;3.33;;
16510;SDS011;8368;48.772;8.754;2023-07-09T05:00:10;3.38;;;3.13;;
16510;SDS011;8368;48.772;8.754;2023-07-09T05:02:36;3.15;;;2.95;;
16510;SDS011;8368;48.772;8.754;2023-07-09T05:05:02;2.80;;;2.60;;
16510;SDS011;8368;48.772;8.754;2023-07-09T05:07:28;3.00;;;2.70;;
16510;SDS011;8368;48.772;8.754;2023-07-09T05:09:53;2.80;;;2.60;;
16510;SDS011;8368;48.772;8.754;2023-07-09T05:12:19;3.20;;;2.90;;
16510;SDS011;8368;48.772;8.754;2023-07-09T05:14:45;3.10;;;2.90;;
16510;SDS011;8368;48.772;8.754;2023-07-09T05:17:11;3.17;;;2.97;;
16510;SDS011;8368;48.772;8.754;2023-07-09T05:19:37;3.88;;;3.10;;
16510;SDS011;8368;48.772;8.754;2023-07-09T05:22:03;3.10;;;2.80;;
16510;SDS011;8368;48.772;8.754;2023-07-09T05:24:29;2.78;;;2.58;;
16510;SDS011;8368;48.772;8.754;2023-07-09T05:26:55;3.35;;;3.15;;
16510;SDS011;8368;48.772;8.754;2023-07-09T05:29:20;3.50;;;3.20;;
16510;SDS011;8368;48.772;8.754;2023-07-09T05:31:46;3.00;;;2.80;;
16510;SDS011;8368;48.772;8.754;2023-07-09T05:34:11;3.03;;;2.83;;
16510;SDS011;8368;48.772;8.754;2023-07-09T05:36:37;3.00;;;2.75;;
16510;SDS011;8368;48.772;8.754;2023-07-09T05:39:02;2.60;;;2.50;;
16510;SDS011;8368;48.772;8.754;2023-07-09T05:41:28;2.60;;;2.50;;
16510;SDS011;8368;48.772;8.754;2023-07-09T05:43:53;3.50;;;3.10;;
16510;SDS011;8368;48.772;8.754;2023-07-09T05:46:21;3.15;;;2.88;;
16510;SDS011;8368;48.772;8.754;2023-07-09T05:48:47;3.08;;;2.83;;
16510;SDS011;8368;48.772;8.754;2023-07-09T05:51:13;3.45;;;3.15;;
16510;SDS011;8368;48.772;8.754;2023-07-09T05:53:38;2.97;;;2.78;;
16510;SDS011;8368;48.772;8.754;2023-07-09T05:56:04;2.65;;;2.55;;
16510;SDS011;8368;48.772;8.754;2023-07-09T05:58:30;3.05;;;2.85;;
16510;SDS011;8368;48.772;8.754;2023-07-09T06:00:55;2.75;;;2.60;;
16510;SDS011;8368;48.772;8.754;2023-07-09T06:03:24;2.90;;;2.55;;
16510;SDS011;8368;48.772;8.754;2023-07-09T06:05:51;3.08;;;2.88;;
16510;SDS011;8368;48.772;8.754;2023-07-09T06:08:18;3.53;;;3.22;;
16510;SDS011;8368;48.772;8.754;2023-07-09T06:10:54;2.90;;;2.70;;
16510;SDS011;8368;48.772;8.754;2023-07-09T06:13:22;2.72;;;2.33;;
16510;SDS011;8368;48.772;8.754;2023-07-09T06:15:48;2.65;;;2.53;;
16510;SDS011;8368;48.772;8.754;2023-07-09T06:18:14;2.53;;;2.33;;
16510;SDS011;8368;48.772;8.754;2023-07-09T06:20:40;3.00;;;2.80;;
16510;SDS011;8368;48.772;8.754;2023-07-09T06:23:05;2.58;;;2.47;;
16510;SDS011;8368;48.772;8.754;2023-07-09T06:25:31;2.35;;;2.25;;
16510;SDS011;8368;48.772;8.754;2023-07-09T06:27:57;3.28;;;2.85;;
16510;SDS011;8368;48.772;8.754;2023-07-09T06:30:22;2.75;;;2.58;;
16510;SDS011;8368;48.772;8.754;2023-07-09T06:32:48;2.90;;;2.65;;
16510;SDS011;8368;48.772;8.754;2023-07-09T06:35:13;2.55;;;2.35;;
16510;SDS011;8368;48.772;8.754;2023-07-09T06:37:39;2.67;;;2.47;;
16510;SDS011;8368;48.772;8.754;2023-07-09T06:40:05;2.97;;;2.78;;
16510;SDS011;8368;48.772;8.754;2023-07-09T06:42:33;2.72;;;2.60;;
16510;SDS011;8368;48.772;8.754;2023-07-09T06:44:59;2.70;;;2.50;;
16510;SDS011;8368;48.772;8.754;2023-07-09T06:47:24;2.67;;;2.47;;
16510;SDS011;8368;48.772;8.754;2023-07-09T06:49:50;2.63;;;2.42;;
16510;SDS011;8368;48.772;8.754;2023-07-09T06:52:15;2.45;;;2.22;;
16510;SDS011;8368;48.772;8.754;2023-07-09T06:54:41;2.10;;;2.00;;
16510;SDS011;8368;48.772;8.754;2023-07-09T06:57:07;2.72;;;2.53;;
16510;SDS011;8368;48.772;8.754;2023-07-09T06:59:32;2.58;;;2.40;;
16510;SDS011;8368;48.772;8.754;2023-07-09T07:01:58;2.88;;;2.50;;
16510;SDS011;8368;48.772;8.754;2023-07-09T07:04:25;2.55;;;2.45;;
16510;SDS011;8368;48.772;8.754;2023-07-09T07:06:51;2.40;;;2.30;;
16510;SDS011;8368;48.772;8.754;2023-07-09T07:09:17;2.30;;;2.17;;
16510;SDS011;8368;48.772;8.754;2023-07-09T07:11:42;2.15;;;2.05;;
16510;SDS011;8368;48.772;8.754;2023-07-09T07:14:08;2.30;;;2.20;;
16510;SDS011;8368;48.772;8.754;2023-07-09T07:16:33;2.58;;;2.38;;
16510;SDS011;8368;48.772;8.754;2023-07-09T07:18:59;2.25;;;2.05;;
16510;SDS011;8368;48.772;8.754;2023-07-09T07:21:24;2.08;;;2.00;;
16510;SDS011;8368;48.772;8.754;2023-07-09T07:23:50;2.00;;;1.88;;
16510;SDS011;8368;48.772;8.754;2023-07-09T07:26:15;2.17;;;2.08;;
16510;SDS011;8368;48.772;8.754;2023-07-09T07:28:41;2.42;;;2.22;;
16510;SDS011;8368;48.772;8.754;2023-07-09T07:31:07;1.85;;;1.75;;
16510;SDS011;8368;48.772;8.754;2023-07-09T07:33:33;3.28;;;2.50;;
16510;SDS011;8368;48.772;8.754;2023-07-09T07:35:59;2.20;;;2.10;;
16510;SDS011;8368;48.772;8.754;2023-07-09T07:38:25;2.20;;;2.10;;
16510;SDS011;8368;48.772;8.754;2023-07-09T07:40:50;1.83;;;1.83;;
16510;SDS011;8368;48.772;8.754;2023-07-09T07:43:16;1.85;;;1.75;;
16510;SDS011;8368;48.772;8.754;2023-07-09T07:45:42;2.42;;;2.22;;
16510;SDS011;8368;48.772;8.754;2023-07-09T07:48:08;2.38;;;2.25;;
16510;SDS011;8368;48.772;8.754;2023-07-09T07:50:34;2.28;;;2.17;;
16510;SDS011;8368;48.772;8.754;2023-07-09T07:53:01;2.20;;;2.10;;
16510;SDS011;8368;48.772;8.754;2023-07-09T07:55:26;2.35;;;2.20;;
16510;SDS011;8368;48.772;8.754;2023-07-09T07:57:52;1.98;;;1.88;;
16510;SDS011;8368;48.772;8.754;2023-07-09T08:00:18;1.70;;;1.60;;
16510;SDS011;8368;48.772;8.754;2023-07-09T08:02:43;2.00;;;1.90;;
16510;SDS011;8368;48.772;8.754;2023-07-09T08:05:09;2.05;;;1.95;;
16510;SDS011;8368;48.772;8.754;2023-07-09T08:07:35;2.05;;;1.95;;
16510;SDS011;8368;48.772;8.754;2023-07-09T08:10:00;2.38;;;2.17;;
16510;SDS011;8368;48.772;8.754;2023-07-09T08:12:26;1.58;;;1.58;;
16510;SDS011;8368;48.772;8.754;2023-07-09T08:14:51;2.10;;;1.90;;
16510;SDS011;8368;48.772;8.754;2023-07-09T08:17:17;1.98;;;1.80;;
16510;SDS011;8368;48.772;8.754;2023-07-09T08:19:44;2.50;;;2.10;;
16510;SDS011;8368;48.772;8.754;2023-07-09T08:22:11;2.15;;;2.03;;
16510;SDS011;8368;48.772;8.754;2023-07-09T08:24:36;2.15;;;2.05;;
16510;SDS011;8368;48.772;8.754;2023-07-09T08:27:02;1.83;;;1.77;;
16510;SDS011;8368;48.772;8.754;2023-07-09T08:29:28;1.70;;;1.70;;
16510;SDS011;8368;48.772;8.754;2023-07-09T08:31:53;2.30;;;2.10;;
16510;SDS011;8368;48.772;8.754;2023-07-09T08:34:19;1.95;;;1.85;;
16510;SDS011;8368;48.772;8.754;2023-07-09T08:36:44;1.98;;;1.88;;
16510;SDS011;8368;48.772;8.754;2023-07-09T08:39:10;1.90;;;1.80;;
16510;SDS011;8368;48.772;8.754;2023-07-09T08:41:40;2.78;;;2.28;;
16510;SDS011;8368;48.772;8.754;2023-07-09T08:44:23;1.77;;;1.77;;
16510;SDS011;8368;48.772;8.754;2023-07-09T08:49:37;2.83;;;2.42;;
16510;SDS011;8368;48.772;8.754;2023-07-09T08:52:24;2.22;;;2.10;;
16510;SDS011;8368;48.772;8.754;2023-07-09T08:55:01;1.83;;;1.73;;
16510;SDS011;8368;48.772;8.754;2023-07-09T08:57:34;1.90;;;1.80;;
16510;SDS011;8368;48.772;8.754;2023-07-09T09:00:14;2.00;;;1.90;;
16510;SDS011;8368;48.772;8.754;2023-07-09T09:02:44;2.10;;;2.00;;
16510;SDS011;8368;48.772;8.754;2023-07-09T09:05:18;1.83;;;1.73;;
16510;SDS011;8368;48.772;8.754;2023-07-09T09:07:47;2.00;;;1.90;;
16510;SDS011;8368;48.772;8.754;2023-07-09T09:10:23;2.25;;;1.70;;
16510;SDS011;8368;48.772;8.754;2023-07-09T09:15:35;1.98;;;1.85;;
16510;SDS011;8368;48.772;8.754;2023-07-09T09:18:15;2.70;;;2.05;;
16510;SDS011;8368;48.772;8.754;2023-07-09T09:21:11;2.40;;;1.83;;
16510;SDS011;8368;48.772;8.754;2023-07-09T09:23:38;1.55;;;1.55;;
16510;SDS011;8368;48.772;8.754;2023-07-09T09:26:09;2.00;;;1.90;;
16510;SDS011;8368;48.772;8.754;2023-07-09T09:28:42;1.88;;;1.77;;
16510;SDS011;8368;48.772;8.754;2023-07-09T09:31:10;2.00;;;1.88;;
16510;SDS011;8368;48.772;8.754;2023-07-09T09:33:37;2.30;;;2.10;;
16510;SDS011;8368;48.772;8.754;2023-07-09T09:36:11;2.38;;;1.75;;
16510;SDS011;8368;48.772;8.754;2023-07-09T09:38:50;1.83;;;1.77;;
16510;SDS011;8368;48.772;8.754;2023-07-09T09:41:19;2.00;;;1.90;;
16510;SDS011;8368;48.772;8.754;2023-07-09T09:43:53;2.33;;;2.10;;
16510;SDS011;8368;48.772;8.754;2023-07-09T09:46:20;1.85;;;1.75;;
16510;SDS011;8368;48.772;8.754;2023-07-09T09:48:50;1.95;;;1.83;;
16510;SDS011;8368;48.772;8.754;2023-07-09T09:51:18;2.63;;;1.73;;
16510;SDS011;8368;48.772;8.754;2023-07-09T09:53:50;2.10;;;2.00;;
16510;SDS011;8368;48.772;8.754;2023-07-09T09:56:19;1.50;;;1.50;;
16510;SDS011;8368;48.772;8.754;2023-07-09T09:58:52;1.67;;;1.60;;
16510;SDS011;8368;48.772;8.754;2023-07-09T10:01:19;2.08;;;1.98;;
16510;SDS011;8368;48.772;8.754;2023-07-09T10:03:47;2.15;;;2.05;;
16510;SDS011;8368;48.772;8.754;2023-07-09T10:06:19;2.15;;;2.00;;
16510;SDS011;8368;48.772;8.754;2023-07-09T10:11:24;1.75;;;1.65;;
16510;SDS011;8368;48.772;8.754;2023-07-09T10:14:05;2.00;;;1.90;;
16510;SDS011;8368;48.772;8.754;2023-07-09T10:16:51;1.70;;;1.60;;
16510;SDS011;8368;48.772;8.754;2023-07-09T10:19:32;1.70;;;1.60;;
16510;SDS011;8368;48.772;8.754;2023-07-09T10:22:10;1.88;;;1.77;;
16510;SDS011;8368;48.772;8.754;2023-07-09T10:25:02;1.77;;;1.67;;
16510;SDS011;8368;48.772;8.754;2023-07-09T10:27:53;1.70;;;1.60;;
16510;SDS011;8368;48.772;8.754;2023-07-09T10:33:10;1.55;;;1.55;;
16510;SDS011;8368;48.772;8.754;2023-07-09T10:35:49;1.67;;;1.67;;
16510;SDS011;8368;48.772;8.754;2023-07-09T10:38:46;1.48;;;1.48;;
16510;SDS011;8368;48.772;8.754;2023-07-09T10:41:14;2.53;;;1.60;;
16510;SDS011;8368;48.772;8.754;2023-07-09T10:43:48;1.70;;;1.60;;
16510;SDS011;8368;48.772;8.754;2023-07-09T10:46:21;1.77;;;1.67;;
16510;SDS011;8368;48.772;8.754;2023-07-09T10:48:50;1.50;;;1.50;;
16510;SDS011;8368;48.772;8.754;2023-07-09T10:51:20;2.00;;;1.90;;
16510;SDS011;8368;48.772;8.754;2023-07-09T10:53:55;1.50;;;1.50;;
16510;SDS011;8368;48.772;8.754;2023-07-09T10:56:40;1.75;;;1.63;;
16510;SDS011;8368;48.772;8.754;2023-07-09T10:59:18;1.80;;;1.70;;
16510;SDS011;8368;48.772;8.754;2023-07-09T11:01:50;1.77;;;1.67;;
16510;SDS011;8368;48.772;8.754;2023-07-09T11:04:31;1.98;;;1.88;;
16510;SDS011;8368;48.772;8.754;2023-07-09T11:07:03;1.50;;;1.48;;
16510;SDS011;8368;48.772;8.754;2023-07-09T11:09:35;1.65;;;1.63;;
16510;SDS011;8368;48.772;8.754;2023-07-09T11:12:17;1.70;;;1.70;;
16510;SDS011;8368;48.772;8.754;2023-07-09T11:14:47;1.83;;;1.73;;
16510;SDS011;8368;48.772;8.754;2023-07-09T11:17:19;1.50;;;1.50;;
16510;SDS011;8368;48.772;8.754;2023-07-09T11:19:48;1.63;;;1.63;;
16510;SDS011;8368;48.772;8.754;2023-07-09T11:24:53;1.70;;;1.70;;
16510;SDS011;8368;48.772;8.754;2023-07-09T11:27:30;1.65;;;1.55;;
16510;SDS011;8368;48.772;8.754;2023-07-09T11:30:00;2.17;;;1.98;;
16510;SDS011;8368;48.772;8.754;2023-07-09T11:32:28;2.67;;;1.50;;
16510;SDS011;8368;48.772;8.754;2023-07-09T11:34:54;1.88;;;1.77;;
16510;SDS011;8368;48.772;8.754;2023-07-09T11:37:30;2.00;;;1.90;;
16510;SDS011;8368;48.772;8.754;2023-07-09T11:39:56;1.75;;;1.65;;
16510;SDS011;8368;48.772;8.754;2023-07-09T11:42:50;2.00;;;1.90;;
16510;SDS011;8368;48.772;8.754;2023-07-09T11:45:17;1.83;;;1.77;;
16510;SDS011;8368;48.772;8.754;2023-07-09T11:50:53;1.90;;;1.80;;
16510;SDS011;8368;48.772;8.754;2023-07-09T11:55:52;2.20;;;2.00;;
16510;SDS011;8368;48.772;8.754;2023-07-09T11:58:18;2.78;;;1.63;;
16510;SDS011;8368;48.772;8.754;2023-07-09T12:01:01;1.95;;;1.85;;
16510;SDS011;8368;48.772;8.754;2023-07-09T12:03:39;1.98;;;1.88;;
16510;SDS011;8368;48.772;8.754;2023-07-09T12:06:21;1.83;;;1.73;;
16510;SDS011;8368;48.772;8.754;2023-07-09T12:08:49;3.42;;;1.42;;
16510;SDS011;8368;48.772;8.754;2023-07-09T12:11:20;1.45;;;1.40;;
16510;SDS011;8368;48.772;8.754;2023-07-09T12:13:53;1.73;;;1.63;;
16510;SDS011;8368;48.772;8.754;2023-07-09T12:16:26;1.40;;;1.40;;
16510;SDS011;8368;48.772;8.754;2023-07-09T12:18:54;2.00;;;1.90;;
16510;SDS011;8368;48.772;8.754;2023-07-09T12:21:19;1.80;;;1.70;;
16510;SDS011;8368;48.772;8.754;2023-07-09T12:23:46;1.38;;;1.38;;
16510;SDS011;8368;48.772;8.754;2023-07-09T12:26:16;1.85;;;1.75;;
16510;SDS011;8368;48.772;8.754;2023-07-09T12:28:43;1.70;;;1.60;;
16510;SDS011;8368;48.772;8.754;2023-07-09T12:31:27;1.50;;;1.50;;
16510;SDS011;8368;48.772;8.754;2023-07-09T12:33:54;1.48;;;1.40;;
16510;SDS011;8368;48.772;8.754;2023-07-09T12:36:22;1.55;;;1.35;;
16510;SDS011;8368;48.772;8.754;2023-07-09T12:38:50;1.70;;;1.60;;
16510;SDS011;8368;48.772;8.754;2023-07-09T12:41:19;1.55;;;1.45;;
16510;SDS011;8368;48.772;8.754;2023-07-09T12:43:47;1.70;;;1.60;;
16510;SDS011;8368;48.772;8.754;2023-07-09T12:46:14;1.90;;;1.77;;
16510;SDS011;8368;48.772;8.754;2023-07-09T12:48:40;1.70;;;1.60;;
16510;SDS011;8368;48.772;8.754;2023-07-09T12:51:07;1.30;;;1.30;;
16510;SDS011;8368;48.772;8.754;2023-07-09T12:53:33;1.50;;;1.50;;
16510;SDS011;8368;48.772;8.754;2023-07-09T12:56:01;1.40;;;1.30;;
16510;SDS011;8368;48.772;8.754;2023-07-09T12:58:31;1.70;;;1.60;;
16510;SDS011;8368;48.772;8.754;2023-07-09T13:01:04;1.65;;;1.55;;
16510;SDS011;8368;48.772;8.754;2023-07-09T13:03:31;1.30;;;1.30;;
16510;SDS011;8368;48.772;8.754;2023-07-09T13:06:01;1.83;;;1.75;;
16510;SDS011;8368;48.772;8.754;2023-07-09T13:08:29;1.40;;;1.30;;
16510;SDS011;8368;48.772;8.754;2023-07-09T13:10:56;1.92;;;1.83;;
16510;SDS011;8368;48.772;8.754;2023-07-09T13:13:23;1.30;;;1.30;;
16510;SDS011;8368;48.772;8.754;2023-07-09T13:18:22;2.08;;;1.98;;
16510;SDS011;8368;48.772;8.754;2023-07-09T13:20:49;1.42;;;1.42;;
16510;SDS011;8368;48.772;8.754;2023-07-09T13:23:16;1.80;;;1.70;;
16510;SDS011;8368;48.772;8.754;2023-07-09T13:25:44;1.60;;;1.60;;
16510;SDS011;8368;48.772;8.754;2023-07-09T13:28:20;1.48;;;1.48;;
16510;SDS011;8368;48.772;8.754;2023-07-09T13:30:56;1.30;;;1.30;;
16510;SDS011;8368;48.772;8.754;2023-07-09T13:33:24;1.77;;;1.40;;
16510;SDS011;8368;48.772;8.754;2023-07-09T13:35:50;1.50;;;1.40;;
16510;SDS011;8368;48.772;8.754;2023-07-09T13:38:19;1.40;;;1.40;;
16510;SDS011;8368;48.772;8.754;2023-07-09T13:40:47;1.48;;;1.48;;
16510;SDS011;8368;48.772;8.754;2023-07-09T13:43:15;1.30;;;1.30;;
16510;SDS011;8368;48.772;8.754;2023-07-09T13:45:55;1.58;;;1.58;;
16510;SDS011;8368;48.772;8.754;2023-07-09T13:48:24;1.58;;;1.48;;
16510;SDS011;8368;48.772;8.754;2023-07-09T13:50:51;1.40;;;1.40;;
16510;SDS011;8368;48.772;8.754;2023-07-09T13:53:19;1.77;;;1.73;;
16510;SDS011;8368;48.772;8.754;2023-07-09T13:55:46;1.85;;;1.75;;
16510;SDS011;8368;48.772;8.754;2023-07-09T13:58:15;1.60;;;1.60;;
16510;SDS011;8368;48.772;8.754;2023-07-09T14:00:49;1.50;;;1.50;;
16510;SDS011;8368;48.772;8.754;2023-07-09T14:03:20;1.65;;;1.65;;
16510;SDS011;8368;48.772;8.754;2023-07-09T14:05:51;1.80;;;1.52;;
16510;SDS011;8368;48.772;8.754;2023-07-09T14:08:17;1.85;;;1.75;;
16510;SDS011;8368;48.772;8.754;2023-07-09T14:10:44;2.70;;;1.90;;
16510;SDS011;8368;48.772;8.754;2023-07-09T14:13:18;1.45;;;1.45;;
16510;SDS011;8368;48.772;8.754;2023-07-09T14:15:46;2.05;;;1.52;;
16510;SDS011;8368;48.772;8.754;2023-07-09T14:18:12;1.73;;;1.63;;
16510;SDS011;8368;48.772;8.754;2023-07-09T14:20:43;1.33;;;1.33;;
16510;SDS011;8368;48.772;8.754;2023-07-09T14:23:12;1.75;;;1.75;;
16510;SDS011;8368;48.772;8.754;2023-07-09T14:25:39;1.75;;;1.75;;
16510;SDS011;8368;48.772;8.754;2023-07-09T14:28:08;1.92;;;1.88;;
16510;SDS011;8368;48.772;8.754;2023-07-09T14:30:36;1.60;;;1.60;;
16510;SDS011;8368;48.772;8.754;2023-07-09T14:33:02;2.15;;;2.05;;
16510;SDS011;8368;48.772;8.754;2023-07-09T14:35:29;2.35;;;2.13;;
16510;SDS011;8368;48.772;8.754;2023-07-09T14:37:55;1.83;;;1.83;;
16510;SDS011;8368;48.772;8.754;2023-07-09T14:40:20;1.70;;;1.70;;
16510;SDS011;8368;48.772;8.754;2023-07-09T14:42:47;1.70;;;1.70;;
16510;SDS011;8368;48.772;8.754;2023-07-09T14:45:23;2.40;;;2.15;;
16510;SDS011;8368;48.772;8.754;2023-07-09T14:47:51;1.88;;;1.77;;
16510;SDS011;8368;48.772;8.754;2023-07-09T14:50:17;1.60;;;1.60;;
16510;SDS011;8368;48.772;8.754;2023-07-09T14:52:44;1.70;;;1.70;;
16510;SDS011;8368;48.772;8.754;2023-07-09T14:57:40;1.70;;;1.70;;
16510;SDS011;8368;48.772;8.754;2023-07-09T15:00:05;1.70;;;1.70;;
16510;SDS011;8368;48.772;8.754;2023-07-09T15:02:36;1.58;;;1.48;;
16510;SDS011;8368;48.772;8.754;2023-07-09T15:05:05;1.65;;;1.65;;
16510;SDS011;8368;48.772;8.754;2023-07-09T15:07:36;1.65;;;1.45;;
16510;SDS011;8368;48.772;8.754;2023-07-09T15:10:02;1.60;;;1.50;;
16510;SDS011;8368;48.772;8.754;2023-07-09T15:12:32;1.75;;;1.75;;
16510;SDS011;8368;48.772;8.754;2023-07-09T15:15:44;1.48;;;1.48;;
16510;SDS011;8368;48.772;8.754;2023-07-09T15:17:49;1.75;;;1.65;;
16510;SDS011;8368;48.772;8.754;2023-07-09T15:20:19;1.42;;;1.42;;
16510;SDS011;8368;48.772;8.754;2023-07-09T15:22:47;1.80;;;1.70;;
16510;SDS011;8368;48.772;8.754;2023-07-09T15:25:18;2.15;;;2.05;;
16510;SDS011;8368;48.772;8.754;2023-07-09T15:27:45;1.48;;;1.45;;
16510;SDS011;8368;48.772;8.754;2023-07-09T15:30:21;1.80;;;1.70;;
16510;SDS011;8368;48.772;8.754;2023-07-09T15:32:49;1.58;;;1.52;;
16510;SDS011;8368;48.772;8.754;2023-07-09T15:35:16;1.40;;;1.40;;
16510;SDS011;8368;48.772;8.754;2023-07-09T15:37:43;1.67;;;1.60;;
16510;SDS011;8368;48.772;8.754;2023-07-09T15:42:54;2.50;;;1.63;;
16510;SDS011;8368;48.772;8.754;2023-07-09T15:45:23;1.30;;;1.30;;